Tropical Cyclones
[Index]
Main Index Home Page Stock Weather Photos Extreme Storms Discussion Storm News and Storm Chasing Reports Tropical Cyclones / Hurricanes / Typhoons Weather Data and Links Wild Fires / Bushfires Weather Observation Techniques Weather Picture Catalogue Tornado Pictures and Reports Stock Video Footage and DVDs for sale
Season 2013-2014 Tropical Cyclone COLIN Track Map
Season 2013-2014 Summaries: [BoM-AU] [JTWC-AU] [JTWC-SIO] [JTWC-SPAC] [JTWC-SH]
<<- Previous TC | JTWC 2013-2014 Season | Next TC ->>

click for intensity scale information  Lat/long Grid: Show Hide

 Date Labels: Show Hide

Joint Typhoon Warning Centre Cyclone Data

Name: COLIN

07 Jan 2014 06:00 UTC to 16 Jan 2014 06:00 UTC

    date/time    lat    long     hPa   cat  kts
2014-01-07 06   11.0   103.6    1007         20          
2014-01-07 12   11.6   102.1    1004         25          
2014-01-07 18   11.2   100.4    1004         25          
2014-01-08 00   10.9    98.7    1004         25          
2014-01-08 06   11.1    96.8    1004         25          
2014-01-08 12   10.7    94.9    1004         25          
2014-01-08 18   10.4    93.4    1000         30          
2014-01-09 00   10.6    91.8    1000         30          
2014-01-09 06   11.1    89.7    1000         30          
2014-01-09 12   11.7    87.5    1000         30          
2014-01-09 18   11.9    85.9     996         35          
2014-01-10 00   12.2    84.7     993    1    40          
2014-01-10 06   12.9    83.7     993    1    40          
2014-01-10 12   13.6    82.7     989    1    45          
2014-01-10 18   14.6    82.0     985    1    50          
2014-01-11 00   15.5    81.1     985    1    50          
2014-01-11 06   16.2    80.3     974    2    65          
2014-01-11 06   16.2    80.3     974    2    65          
2014-01-11 06   16.2    80.3     974    2    65          
2014-01-11 12   16.6    79.7     956    3    90          
2014-01-11 12   16.6    79.7     956    3    90          
2014-01-11 12   16.6    79.7     956    3    90          
2014-01-11 18   17.1    79.2     937    4   115          
2014-01-11 18   17.1    79.2     937    4   115          
2014-01-11 18   17.1    79.2     937    4   115          
2014-01-12 00   17.7    78.7     933    4   120          
2014-01-12 00   17.7    78.7     933    4   120          
2014-01-12 00   17.7    78.7     933    4   120          
2014-01-12 06   18.3    78.2     937    4   115          
2014-01-12 06   18.3    78.2     937    4   115          
2014-01-12 06   18.3    78.2     937    4   115          
2014-01-12 12   19.4    77.5     941    4   110          
2014-01-12 12   19.4    77.5     941    4   110          
2014-01-12 12   19.4    77.5     941    4   110          
2014-01-12 18   20.2    76.5     952    3    95          
2014-01-12 18   20.2    76.5     952    3    95          
2014-01-12 18   20.2    76.5     952    3    95          
2014-01-13 00   21.3    75.8     963    3    80          
2014-01-13 00   21.3    75.8     963    3    80          
2014-01-13 00   21.3    75.8     963    3    80          
2014-01-13 06   22.9    74.8     967    3    75          
2014-01-13 06   22.9    74.8     967    3    75          
2014-01-13 06   22.9    74.8     967    3    75          
2014-01-13 12   24.0    74.1     982    2    55          
2014-01-13 12   24.0    74.1     982    2    55          
2014-01-13 18   24.9    73.7     989    1    45          
2014-01-14 00   25.8    73.4     993    1    40          
2014-01-14 06   26.7    73.2     993    1    40          
2014-01-14 12   27.6    72.9     996         35          
2014-01-14 18   28.6    73.3     996         35          
2014-01-15 00   29.5    74.3     996         35          
2014-01-15 06   30.5    75.5    1000         30          
2014-01-15 12   31.9    78.1    1000         30          
2014-01-15 18   33.5    81.2    1004         25          
2014-01-16 00   35.2    84.5    1007         20          
2014-01-16 06   37.3    88.2     989    1    45          
Winds are 1-min average.

Tropical cyclone tracks developed by Michael Bath using data from the Joint Typhoon Warning Centre Best Tracks and Google Maps.


[Australian Severe Weather index] [Copyright Notice] [Email Contacts] [Search This Site] [Privacy Policy]
Document: tropical_cyclone_colin.htm Updated: 28 June 2017